Date,TemperatureHighF,TemperatureAvgF,TemperatureLowF,DewpointHighF,DewpointAvgF,DewpointLowF,HumidityHigh,HumidityAvg,HumidityLow,PressureMaxIn,PressureMinIn,WindSpeedMaxMPH,WindSpeedAvgMPH,GustSpeedMaxMPH,PrecipitationSumIn
2013-1-1,28.9,22.2,13.0,23.0,14.3,9.0,86,72,54,30.16,30.02,8,1,0,0.00
2013-1-2,25.7,17.4,8.8,19.0,13.1,6.0,90,83,75,30.20,30.09,6,2,0,0.00
2013-1-3,29.2,21.0,10.4,25.0,15.9,5.0,88,80,74,30.18,30.09,11,3,0,0.00
2013-1-4,29.2,24.7,18.0,23.0,18.9,14.0,85,79,68,30.20,30.09,10,4,0,0.00
2013-1-5,32.4,25.7,16.4,30.0,22.1,14.0,94,86,76,30.29,30.05,10,3,0,0.00
2013-1-6,35.3,32.9,30.6,32.0,29.2,25.0,91,86,74,30.29,29.93,11,3,0,0.01
2013-1-7,33.8,30.3,27.1,27.0,24.6,23.0,87,79,73,30.40,30.17,17,4,0,0.00
2013-1-8,36.5,28.6,22.2,29.0,24.3,20.0,91,84,72,30.26,30.17,8,2,0,0.01
2013-1-9,46.7,38.4,28.5,35.0,29.0,25.0,90,71,46,30.47,30.06,9,3,0,0.00
2013-1-10,39.1,31.8,22.4,33.0,27.7,21.0,93,85,74,30.56,30.15,6,2,0,0.18
2013-1-11,57.9,45.4,34.8,52.0,42.8,33.0,97,91,75,30.13,29.79,14,3,0,0.44
2013-1-12,59.7,50.7,45.0,53.0,47.8,43.0,96,90,78,29.96,29.79,9,3,0,0.07
2013-1-13,50.5,38.4,30.0,49.0,36.8,27.0,96,94,88,30.07,29.73,7,2,0,0.68
2013-1-14,29.7,23.6,16.8,26.0,18.6,15.0,92,81,71,30.44,30.07,10,2,0,0.00
2013-1-15,29.1,22.1,13.7,21.0,17.0,12.0,93,81,68,30.43,30.14,3,0,0,0.00
2013-1-16,37.6,29.1,20.5,27.0,21.3,18.0,92,74,50,30.13,29.85,13,3,0,0.00
2013-1-17,39.5,30.9,19.2,29.0,22.1,9.0,92,71,50,30.32,29.98,13,2,0,0.00
2013-1-18,34.6,27.4,19.7,25.0,18.6,12.0,77,69,62,30.43,30.00,17,4,0,0.00
2013-1-19,48.5,40.6,34.2,35.0,30.3,25.0,78,67,56,30.00,29.65,20,7,0,0.00
2013-1-20,42.9,23.5,17.9,35.0,12.5,7.0,75,63,51,30.19,29.63,13,4,0,0.00
2013-1-21,18.8,14.8,7.8,12.0,7.2,0.0,86,72,48,30.14,29.97,19,3,0,0.00
2013-1-22,11.3,5.4,-1.4,5.0,-1.3,-8.0,82,74,67,30.29,30.12,8,2,0,0.00
2013-1-23,17.2,11.0,1.7,12.0,5.1,-2.0,89,78,59,30.28,30.07,8,2,0,0.00
2013-1-24,20.3,13.5,7.3,12.0,5.1,1.0,88,70,45,30.59,30.11,10,2,0,0.00
2013-1-25,20.9,18.1,15.1,19.0,13.3,7.0,91,81,70,30.48,30.01,8,2,0,0.00
2013-1-26,26.9,22.5,15.5,20.0,16.4,11.0,91,78,61,30.45,30.04,5,1,0,0.00
2013-1-27,30.2,22.3,12.2,27.0,17.5,10.0,90,82,68,30.47,30.12,8,2,0,0.00
2013-1-28,46.8,39.8,30.6,46.0,38.9,28.0,97,96,89,30.13,29.88,9,2,0,0.32
2013-1-29,58.4,48.7,36.8,55.0,47.8,36.0,98,96,89,30.02,29.48,13,4,0,0.92
2013-1-30,62.7,49.7,31.8,58.0,47.2,25.0,96,91,75,29.46,29.17,18,5,0,0.58
2013-1-31,31.4,18.6,15.6,25.0,-0.7,-99.9,92,66,63,29.90,29.34,13,-132,0,0.00
2013-2-1,17.3,11.6,11.1,11.0,-9.7,-99.9,85,63,64,30.29,29.91,9,-153,0,0.00
2013-2-2,24.1,14.3,9.7,21.0,-7.8,-99.9,90,68,77,30.22,29.94,8,-187,0,0.00
2013-2-3,22.7,13.2,4.4,17.0,-9.4,-99.9,90,66,69,30.02,29.87,8,-186,0,0.00
2013-2-4,22.8,17.3,16.4,19.0,-0.9,-99.9,90,74,84,30.02,29.86,5,-155,0,0.00
2013-2-5,28.4,20.6,13.4,26.0,10.4,-99.9,93,81,76,29.95,29.82,10,-71,0,0.00
2013-2-6,31.4,22.8,8.5,25.0,10.9,-99.9,91,69,56,30.30,29.96,7,-41,0,0.05
2013-2-7,37.6,27.3,23.8,30.0,12.3,-99.9,90,71,70,30.26,29.83,9,-92,0,0.02
2013-2-8,31.2,27.3,18.1,30.0,23.7,15.0,95,86,71,30.36,29.77,10,3,0,0.00
2013-2-9,31.2,21.9,10.3,22.0,16.9,8.0,92,81,65,30.44,30.28,8,1,0,0.01
2013-2-10,42.3,31.5,20.3,40.0,26.9,18.0,95,83,69,30.27,29.68,11,2,0,0.16
2013-2-11,45.4,37.8,31.4,44.0,31.5,24.0,93,78,69,29.91,29.58,17,7,0,0.00
2013-2-12,34.8,31.1,28.3,26.0,24.2,22.0,80,75,68,30.07,29.92,7,2,0,0.00
2013-2-13,39.3,30.5,26.1,29.0,24.5,21.0,90,78,63,29.94,29.74,7,2,0,0.00
2013-2-14,40.3,35.0,28.3,36.0,30.6,26.0,92,84,71,29.88,29.70,13,4,0,0.00
2013-2-15,33.5,29.0,22.3,28.0,19.5,14.0,84,68,51,30.13,29.89,10,2,0,0.00
2013-2-16,26.3,21.2,15.2,20.0,14.8,10.0,89,77,55,30.11,29.99,7,1,0,0.00
2013-2-17,26.3,18.2,10.3,12.0,9.6,6.0,91,71,45,30.20,30.06,9,1,0,0.00
2013-2-18,49.1,33.8,18.6,39.0,24.0,11.0,80,68,56,30.19,29.61,13,5,0,0.00
2013-2-19,43.9,26.9,17.5,41.0,21.4,11.0,92,80,67,29.99,29.45,15,7,0,0.21
2013-2-20,21.9,19.5,16.7,16.0,13.0,10.0,88,76,65,30.25,29.99,10,3,0,0.00
2013-2-21,25.5,22.7,20.9,18.0,16.2,14.0,83,76,71,30.36,30.23,10,3,0,0.00
2013-2-22,33.5,27.4,21.9,33.0,25.5,18.0,96,92,83,30.23,29.88,11,4,0,0.00
2013-2-23,33.1,29.5,25.5,31.0,22.2,19.0,91,74,64,29.94,29.89,12,3,0,0.00
2013-2-24,36.2,28.3,22.3,27.0,22.8,18.0,91,80,66,30.16,29.92,8,2,0,0.06
2013-2-25,40.5,29.3,17.3,29.0,22.8,16.0,93,78,57,30.22,30.07,5,1,0,0.02
2013-2-26,33.2,31.2,28.4,32.0,27.6,23.0,96,86,76,30.09,29.47,12,4,0,0.41
2013-2-27,34.8,29.4,31.7,33.0,18.1,-99.9,96,86,94,29.59,29.43,12,-103,0,0.25
2013-2-28,38.4,33.6,30.9,34.0,30.9,28.0,96,89,77,29.95,29.57,8,2,0,0.42
2013-3-1,30.7,26.3,25.2,27.0,18.0,-99.9,86,77,75,30.11,29.95,7,-28,0,0.00
2013-3-2,26.7,22.5,22.4,21.0,8.1,-99.9,85,72,74,30.08,30.05,4,-92,0,0.00
2013-3-3,31.6,21.6,16.9,17.0,4.8,-99.9,89,65,50,30.07,30.00,6,-94,0,0.00
2013-3-4,34.9,23.5,13.8,21.0,7.6,-99.9,92,66,43,30.15,30.06,4,-63,0,0.00
2013-3-5,32.3,27.5,22.1,27.0,22.5,18.0,89,81,75,30.11,29.79,14,4,0,0.00
2013-3-6,38.6,32.3,26.6,30.0,26.5,23.0,87,79,69,30.21,29.81,9,2,0,0.00
2013-3-7,38.3,33.6,29.0,30.0,26.1,22.0,91,75,56,30.39,30.20,8,1,0,0.00
2013-3-8,44.0,31.8,20.1,27.0,23.1,18.0,93,72,50,30.49,30.39,5,1,0,0.00
2013-3-9,45.9,34.7,24.2,35.0,28.8,22.0,94,80,59,30.40,30.04,9,2,0,0.00
2013-3-10,61.7,49.4,33.9,46.0,39.0,31.0,90,69,53,30.03,29.80,14,3,0,0.01
2013-3-11,56.7,48.6,36.5,48.0,43.6,32.0,94,83,59,29.82,29.50,15,7,0,0.36
2013-3-12,36.5,33.3,30.2,33.0,28.9,26.0,91,84,72,29.93,29.73,14,4,0,0.00
2013-3-13,31.5,28.7,25.3,28.0,21.5,17.0,91,75,61,30.22,29.89,13,4,0,0.00
2013-3-14,42.0,31.5,22.5,24.0,20.1,16.0,82,64,44,30.27,30.10,9,2,0,0.00
2013-3-15,45.3,36.6,31.0,37.0,31.2,24.0,94,81,66,30.10,29.83,6,2,0,0.05
2013-3-16,34.7,30.5,28.7,33.0,27.7,24.0,95,89,79,30.06,29.73,9,2,0,0.02
2013-3-17,32.1,27.6,23.6,25.0,19.0,15.0,83,71,54,30.25,30.05,9,4,0,0.00
2013-3-18,34.9,30.6,24.7,34.0,28.2,20.0,96,90,80,30.16,29.56,8,4,0,0.10
2013-3-19,34.5,25.0,22.1,32.0,8.0,-99.9,90,64,56,29.96,29.65,14,-89,0,0.00
2013-3-20,28.2,24.6,17.6,19.0,14.5,9.0,78,66,55,29.96,29.91,9,3,0,0.00
2013-3-21,31.9,23.0,15.0,23.0,13.9,-99.9,88,75,63,29.96,29.88,8,-30,0,0.00
2013-3-22,42.2,30.4,25.1,24.0,16.0,-99.9,83,63,47,30.03,29.95,7,-40,0,0.00
2013-3-23,40.2,29.3,21.4,26.0,17.8,-99.9,91,72,52,30.10,30.02,6,-41,0,0.00
2013-3-24,35.8,31.1,27.1,26.0,23.8,20.0,86,75,59,30.02,29.60,12,4,0,0.00
2013-3-25,38.8,33.6,29.7,30.0,27.3,24.0,88,78,65,29.91,29.53,11,4,0,0.00
2013-3-26,43.3,36.2,32.5,31.0,28.7,26.0,84,75,59,30.13,29.92,9,2,0,0.00
2013-3-27,44.8,37.8,29.9,31.0,26.3,23.0,87,65,45,30.23,30.13,6,2,0,0.00
2013-3-28,53.3,40.2,27.4,28.0,25.1,22.0,80,57,33,30.28,30.22,8,2,0,0.00
2013-3-29,52.8,37.8,23.9,26.0,17.5,-99.9,88,53,29,30.30,30.20,6,-41,0,0.00
2013-3-30,55.3,40.7,25.0,33.0,21.8,-99.9,89,54,32,30.23,29.94,9,-30,0,0.00
2013-3-31,59.9,41.9,36.3,44.0,19.8,-99.9,90,58,34,29.93,29.64,13,-112,0,0.00
2013-4-1,41.3,32.1,25.7,31.0,11.4,-99.9,78,50,34,30.12,29.73,8,-50,0,0.00
2013-4-2,41.7,26.3,21.5,20.0,6.0,-99.9,81,55,31,30.25,30.11,9,-76,0,0.00
2013-4-3,44.4,31.0,21.0,21.0,7.9,-99.9,82,47,27,30.42,30.25,8,-57,0,0.00
2013-4-4,56.2,37.8,22.3,21.0,14.1,-99.9,81,45,19,30.37,29.97,7,-24,0,0.00
2013-4-5,50.6,43.3,34.9,31.0,21.9,14.0,76,46,24,30.20,29.95,10,2,0,0.00
2013-4-6,57.3,44.4,33.0,28.0,23.5,14.0,77,48,28,30.26,29.79,18,5,0,0.00
2013-4-7,59.1,53.8,45.8,46.0,38.6,29.0,74,58,36,30.02,29.66,16,4,0,0.00
2013-4-8,70.0,49.8,37.6,58.0,42.8,33.0,92,77,55,30.04,29.72,15,3,0,0.12
2013-4-9,57.7,49.4,42.1,49.0,44.3,40.0,93,83,71,30.09,29.88,7,2,0,0.00
2013-4-10,49.3,44.6,41.0,46.0,42.8,40.0,95,93,86,29.98,29.81,7,3,0,0.54
2013-4-11,40.8,38.5,36.5,40.0,37.3,35.0,96,95,92,29.96,29.62,15,6,0,0.95
2013-4-12,41.0,38.9,36.7,39.0,35.9,32.0,96,89,71,29.80,29.54,16,4,0,0.25
2013-4-13,41.3,39.0,36.4,36.0,31.6,28.0,91,75,62,30.00,29.81,13,4,0,0.01
2013-4-14,48.2,40.8,34.7,38.0,33.7,28.0,90,76,63,30.11,29.92,11,3,0,0.00
2013-4-15,68.7,55.2,37.2,55.0,47.0,35.0,93,75,59,29.96,29.87,16,4,0,0.00
2013-4-16,62.1,54.7,48.1,54.0,44.2,34.0,94,70,43,30.23,29.88,8,2,0,0.29
2013-4-17,53.5,46.0,43.0,41.0,30.3,-99.9,91,61,53,30.32,30.05,11,-38,0,0.28
2013-4-18,75.5,55.4,43.1,65.0,46.6,-99.9,96,83,67,30.02,29.59,21,-47,0,0.91
2013-4-19,58.8,43.8,36.3,57.0,38.9,31.0,96,83,69,29.80,29.37,18,5,0,0.29
2013-4-20,42.4,35.7,30.1,32.0,24.1,19.0,92,64,43,30.44,29.80,13,3,0,0.00
2013-4-21,46.0,36.2,24.9,31.0,26.8,21.0,91,70,51,30.60,30.44,12,3,0,0.00
2013-4-22,62.0,45.9,29.8,38.0,32.4,27.0,94,65,28,30.47,30.19,8,2,0,0.00
2013-4-23,70.1,54.0,38.2,54.0,43.5,35.0,94,71,40,30.18,29.82,17,4,0,0.28
2013-4-24,55.2,41.0,35.1,54.0,37.3,28.0,95,87,63,30.17,29.75,10,3,0,0.56
2013-4-25,51.6,40.9,33.5,39.0,32.5,28.0,90,73,44,30.37,30.14,11,3,0,0.05
2013-4-26,60.0,45.3,29.4,37.0,32.9,28.0,95,66,39,30.47,30.36,11,3,0,0.00
2013-4-27,69.2,52.6,35.0,41.0,36.5,33.0,94,60,29,30.38,30.11,10,3,0,0.00
2013-4-28,55.9,52.1,47.9,55.0,48.0,37.0,97,86,60,30.11,29.83,5,1,0,0.20
2013-4-29,69.7,60.2,51.3,56.0,53.6,51.0,97,80,58,29.95,29.85,6,2,0,0.00
2013-4-30,74.5,63.7,53.3,57.0,54.5,51.0,92,73,52,30.07,29.95,15,4,0,0.00
2013-5-1,83.1,67.2,50.0,58.0,54.7,48.0,95,67,40,30.25,30.07,9,2,0,0.00
2013-5-2,79.0,65.0,53.2,56.0,51.4,46.0,88,64,39,30.26,30.14,9,2,0,0.00
2013-5-3,78.3,65.4,54.8,58.0,48.7,39.0,83,58,30,30.14,30.04,10,2,0,0.00
2013-5-4,69.0,61.2,52.5,51.0,44.3,37.0,84,56,34,30.11,30.04,6,2,0,0.00
2013-5-5,69.6,61.1,52.2,49.0,42.2,30.0,79,53,24,30.10,30.02,6,2,0,0.00
2013-5-6,72.9,61.5,50.7,50.0,44.8,40.0,69,55,42,30.07,29.99,4,1,0,0.00
2013-5-7,74.1,62.4,48.4,55.0,49.2,43.0,84,64,43,30.07,30.00,6,1,0,0.00
2013-5-8,79.0,65.7,52.6,55.0,50.8,48.0,89,62,35,30.04,29.96,4,0,0,0.00
2013-5-9,81.8,68.1,51.7,56.0,51.3,45.0,93,60,29,29.99,29.91,6,0,0,0.00
2013-5-10,72.5,60.7,44.3,61.0,55.2,41.0,96,83,63,29.94,29.76,8,2,0,0.14
2013-5-11,60.7,47.5,38.3,48.0,41.6,34.0,90,81,57,29.93,29.79,7,1,0,0.00
2013-5-12,49.7,41.7,34.2,34.0,30.3,26.0,90,66,45,30.11,29.93,5,1,0,0.00
2013-5-13,57.9,43.7,29.2,34.0,26.0,20.0,91,55,26,30.19,30.11,6,0,0,0.00
2013-5-14,80.1,61.3,42.3,58.0,43.7,30.0,73,54,39,30.11,29.73,13,2,0,0.00
2013-5-15,85.9,75.2,66.9,61.0,53.4,45.0,72,50,24,29.81,29.63,6,1,0,0.00
2013-5-16,85.3,69.8,50.9,51.0,46.4,44.0,82,47,25,30.01,29.80,3,0,0,0.00
2013-5-17,75.0,62.7,51.4,49.0,43.4,38.0,70,51,34,30.16,30.02,4,1,0,0.00
2013-5-18,78.5,60.5,53.3,55.0,38.3,-99.9,75,52,42,30.16,30.06,2,-62,0,0.00
2013-5-19,86.6,70.7,54.3,65.0,57.4,47.0,80,64,44,30.06,29.90,3,0,0,0.00
2013-5-20,89.4,76.7,62.5,70.0,64.6,60.0,93,69,43,29.95,29.81,12,2,0,0.00
2013-5-21,85.5,77.2,69.7,67.0,62.9,60.0,85,63,45,29.85,29.73,8,1,0,0.00
2013-5-22,79.4,65.5,-90.0,65.0,55.4,-99.9,94,76,52,29.78,29.68,12,-30,0,0.32
2013-5-23,65.5,55.7,45.9,61.0,52.9,44.0,95,90,78,30.17,29.73,5,1,0,0.02
2013-5-24,58.3,48.6,39.1,44.0,38.4,36.0,92,70,48,30.35,30.17,3,1,0,0.00
2013-5-25,66.1,53.1,39.9,43.0,38.5,36.0,92,62,34,30.41,30.28,2,0,0,0.00
2013-5-26,69.7,56.6,39.1,44.0,36.2,31.0,93,52,26,30.38,30.23,2,0,0,0.00
2013-5-27,56.7,52.3,50.5,53.0,45.9,39.0,96,80,53,30.27,30.00,4,0,0,0.60
2013-5-28,77.5,66.1,54.3,70.0,61.9,53.0,97,87,72,29.99,29.85,8,2,0,0.09
2013-5-29,83.4,75.8,67.6,70.0,65.1,62.0,86,70,53,30.01,29.86,8,2,0,0.00
2013-5-30,88.4,76.3,67.1,71.0,65.9,61.0,92,71,49,30.09,29.98,14,2,0,0.17
2013-5-31,79.5,72.4,69.1,69.0,67.2,65.0,94,84,66,30.02,29.89,11,2,0,0.42
2013-6-1,77.4,69.3,62.8,68.0,64.2,61.0,96,84,66,29.92,29.72,10,2,0,0.50
2013-6-2,71.9,62.3,54.9,65.0,49.5,-99.9,91,72,62,30.00,29.70,7,-51,0,0.00
2013-6-3,67.7,57.1,44.4,47.0,41.8,37.0,85,59,35,30.11,30.00,4,0,0,0.00
2013-6-4,73.1,60.7,47.7,50.0,47.1,45.0,91,64,38,30.21,30.11,3,0,0,0.00
2013-6-5,74.3,62.8,53.6,50.0,43.8,37.0,71,52,29,30.18,30.00,2,0,0,0.00
2013-6-6,71.8,62.1,55.9,55.0,49.7,43.0,76,65,52,30.00,29.85,3,0,0,0.00
2013-6-7,61.2,56.0,51.6,54.0,51.1,49.0,91,83,76,29.93,29.88,2,0,0,0.00
2013-6-8,75.1,58.5,47.1,57.0,41.7,-99.9,95,66,47,30.08,29.93,1,-73,0,0.00
2013-6-9,77.3,67.3,59.5,63.0,58.9,55.0,88,75,60,30.11,29.96,3,0,0,0.00
2013-6-10,73.3,66.5,63.2,68.0,64.2,61.0,97,92,78,29.96,29.75,3,0,0,0.64
2013-6-11,84.0,72.6,64.4,67.0,64.7,62.0,96,78,54,29.93,29.79,5,0,0,0.00
2013-6-12,80.4,71.5,62.9,72.0,65.9,61.0,95,83,66,29.93,29.65,4,0,0,0.05
2013-6-13,77.7,68.5,60.9,65.0,59.6,55.0,96,75,47,29.94,29.51,4,1,0,0.87
2013-6-14,78.2,67.5,58.5,60.0,56.7,52.0,91,70,43,30.10,29.95,3,0,0,0.00
2013-6-15,77.5,67.3,57.6,64.0,59.5,54.0,90,77,56,30.11,29.95,4,0,0,0.00
2013-6-16,83.3,72.3,63.7,67.0,63.6,58.0,95,76,55,29.95,29.83,4,0,0,0.70
2013-6-17,88.1,74.0,59.3,69.0,61.1,57.0,92,67,37,29.95,29.87,5,0,0,0.00
2013-6-18,72.4,66.0,59.5,62.0,56.1,45.0,92,72,48,30.08,29.89,3,0,0,0.00
2013-6-19,77.1,63.4,49.0,54.0,49.1,44.0,83,62,41,30.18,30.08,2,0,0,0.00
2013-6-20,85.3,68.7,51.4,59.0,53.8,49.0,93,62,35,30.24,30.16,2,0,0,0.00
2013-6-21,85.4,75.4,62.5,64.0,59.4,57.0,84,60,39,30.23,30.07,8,1,0,0.00
2013-6-22,89.9,71.8,69.0,75.0,59.1,-99.9,95,73,59,30.12,30.01,7,-52,0,1.26
2013-6-23,90.9,71.4,68.6,72.0,52.9,-99.9,92,66,51,30.11,30.00,7,-93,0,0.00
2013-6-24,88.3,77.5,67.3,72.0,68.5,65.0,93,75,56,30.11,29.96,8,1,0,0.01
2013-6-25,87.3,74.0,66.6,75.0,68.6,64.0,95,84,61,30.04,29.84,6,1,0,1.15
2013-6-26,81.5,71.5,64.9,71.0,67.3,63.0,96,87,68,29.95,29.76,2,0,0,2.31
2013-6-27,84.0,71.7,66.0,73.0,68.7,65.0,97,91,66,29.80,29.67,5,0,0,2.08
2013-6-28,81.3,69.1,63.0,68.0,64.2,61.0,97,85,57,29.66,29.54,3,0,0,0.06
2013-6-29,76.5,65.5,60.1,66.0,62.7,59.0,97,91,65,29.75,29.57,4,0,0,0.90
2013-6-30,76.7,67.4,60.1,63.0,60.2,58.0,96,79,53,29.95,29.74,3,0,0,0.02
2013-7-1,67.3,60.9,59.7,60.0,49.9,-99.9,86,74,69,30.06,29.94,5,-41,0,0.00
2013-7-2,72.1,60.0,60.1,65.0,46.8,-99.9,90,77,78,30.08,30.02,3,-87,0,0.00
2013-7-3,82.4,68.3,63.1,69.0,55.2,-99.9,95,74,55,30.13,30.04,4,-61,0,0.00
2013-7-4,79.7,67.0,64.8,68.0,51.4,-99.9,94,71,61,30.16,30.08,5,-84,0,0.00
2013-7-5,83.9,70.0,67.9,70.0,54.8,-99.9,95,71,55,30.14,30.07,4,-76,0,0.16
2013-7-6,79.2,72.6,67.6,71.0,68.7,66.0,95,88,71,30.14,30.02,3,0,0,0.62
2013-7-7,79.3,72.0,67.2,71.0,67.7,65.0,96,87,69,30.08,30.00,2,0,0,1.44
2013-7-8,82.6,72.1,66.7,76.0,69.3,66.0,98,91,75,30.07,30.00,3,0,0,0.01
2013-7-9,88.2,74.9,69.9,77.0,71.8,69.0,97,90,68,30.02,29.92,5,0,0,0.43
2013-7-10,84.9,75.6,65.8,78.0,70.9,61.0,97,86,63,29.96,29.82,3,0,0,0.07
2013-7-11,77.7,69.2,61.8,61.0,58.3,55.0,88,70,50,30.08,29.97,1,0,0,0.00
2013-7-12,79.7,69.0,57.4,63.0,60.1,56.0,94,75,53,30.17,30.08,3,0,0,0.00
2013-7-13,83.4,72.6,62.1,68.0,64.0,60.0,92,76,54,30.23,30.15,3,0,0,0.00
2013-7-14,86.8,75.0,64.9,72.0,63.8,-99.9,94,74,56,30.27,30.21,2,-31,0,0.00
2013-7-15,92.5,80.5,70.8,77.0,73.2,69.0,96,80,60,30.32,30.25,4,0,0,0.00
2013-7-16,93.5,83.0,74.8,78.0,74.1,72.0,95,76,52,30.34,30.27,2,0,0,0.00
2013-7-17,93.7,82.4,72.0,78.0,74.1,70.0,93,77,59,30.32,30.18,2,0,0,0.00
2013-7-18,93.9,82.8,72.2,77.0,74.2,70.0,95,77,54,30.20,30.00,10,0,0,0.00
2013-7-19,93.0,83.7,74.9,76.0,74.0,72.0,91,74,54,30.01,29.78,13,2,0,0.00
2013-7-20,85.7,76.4,69.6,76.0,69.1,63.0,97,80,48,29.94,29.76,8,0,0,2.84
2013-7-21,84.7,74.1,66.1,68.0,64.4,60.0,90,73,52,30.03,29.93,2,0,0,0.00
2013-7-22,81.0,72.5,67.8,70.0,66.8,65.0,95,82,65,29.96,29.78,2,0,0,0.01
2013-7-23,86.0,72.2,61.6,72.0,66.1,53.0,95,82,53,29.89,29.70,3,0,0,0.24
2013-7-24,71.8,62.7,54.0,56.0,52.6,50.0,86,71,52,30.06,29.91,4,0,0,0.00
2013-7-25,77.8,65.8,52.4,57.0,53.7,51.0,94,67,43,30.13,30.06,1,0,0,0.00
2013-7-26,77.3,68.0,55.8,62.0,58.3,54.0,94,73,53,30.12,29.93,4,0,0,0.00
2013-7-27,73.6,65.8,56.3,67.0,62.2,52.0,95,88,69,29.94,29.76,4,0,0,0.07
2013-7-28,66.0,58.7,50.7,55.0,51.8,49.0,93,79,61,30.02,29.87,6,1,0,0.00
2013-7-29,71.8,61.5,53.9,59.0,54.7,51.0,89,79,62,30.21,30.02,1,0,0,0.00
2013-7-30,80.2,65.9,50.6,64.0,57.5,49.0,96,76,52,30.26,30.14,3,0,0,0.00
2013-7-31,76.1,69.8,65.5,67.0,64.5,62.0,96,83,69,30.14,29.92,3,0,0,0.04
2013-8-1,78.7,69.3,61.4,66.0,61.3,55.0,96,78,48,29.96,29.91,3,0,0,0.00
2013-8-2,73.4,63.3,54.7,67.0,59.6,53.0,94,88,80,29.98,29.87,5,0,0,0.13
2013-8-3,79.3,69.8,60.7,65.0,59.7,53.0,97,73,47,30.06,29.94,1,0,0,0.00
2013-8-4,74.4,64.7,54.9,57.0,55.1,52.0,92,72,50,30.18,30.07,2,0,0,0.00
2013-8-5,72.4,64.2,53.9,60.0,55.6,52.0,94,75,52,30.14,29.98,1,0,0,0.00
2013-8-6,78.1,69.7,63.4,69.0,64.0,59.0,92,82,69,29.99,29.92,3,0,0,0.00
2013-8-7,82.9,72.0,64.8,73.0,68.2,63.0,96,88,66,29.95,29.86,6,0,0,0.17
2013-8-8,74.8,70.2,66.2,70.0,65.6,61.0,95,85,77,30.03,29.92,2,0,0,0.00
2013-8-9,82.8,71.1,62.2,64.0,60.7,55.0,90,71,47,30.04,29.97,3,0,0,0.00
2013-8-10,78.3,64.0,63.5,65.0,48.8,-99.9,92,71,61,30.15,30.04,2,-84,0,0.00
2013-8-11,80.5,65.9,57.8,62.0,50.2,-99.9,96,68,50,30.15,30.05,2,-61,0,0.00
2013-8-12,78.7,57.7,63.0,71.0,37.2,-99.9,100,71,71,30.09,29.86,0,-166,0,0.23
2013-8-13,67.0,56.9,55.6,65.0,41.1,-99.9,96,70,52,30.08,29.86,3,-84,0,0.01
2013-8-14,70.3,56.2,48.8,55.0,41.8,-99.9,90,68,50,30.20,30.09,3,-54,0,0.00
2013-8-15,75.3,59.0,48.2,57.0,43.7,-99.9,96,68,44,30.20,30.12,2,-54,0,0.00
2013-8-16,77.5,65.2,51.9,57.0,54.3,50.0,95,71,45,30.22,30.14,1,0,0,0.00
2013-8-17,78.5,65.8,52.6,61.0,56.1,51.0,95,74,46,30.28,30.21,2,0,0,0.00
2013-8-18,80.5,65.8,58.4,68.0,51.1,-99.9,95,69,49,30.24,30.13,2,-52,0,0.00
2013-8-19,83.3,69.7,56.5,66.0,60.3,55.0,95,74,48,30.15,30.06,3,0,0,0.00
2013-8-20,84.7,72.2,59.5,68.0,63.8,58.0,95,77,55,30.18,30.09,3,0,0,0.00
2013-8-21,85.5,74.0,62.1,71.0,66.2,60.0,95,78,52,30.17,30.02,6,0,0,0.00
2013-8-22,80.5,72.3,66.6,70.0,67.7,66.0,96,86,69,30.08,30.00,2,0,0,0.30
2013-8-23,80.4,70.1,60.5,66.0,58.4,51.0,96,71,38,30.21,30.08,2,0,0,0.00
2013-8-24,83.8,69.8,56.0,66.0,58.3,54.0,95,70,39,30.34,30.22,2,0,0,0.00
2013-8-25,88.0,71.7,55.7,65.0,60.9,54.0,95,72,43,30.32,30.18,3,0,0,0.00
2013-8-26,89.2,76.1,63.8,72.0,67.2,61.0,91,75,57,30.21,30.02,6,0,0,0.00
2013-8-27,86.0,77.1,71.2,77.0,72.5,69.0,94,86,75,30.04,29.87,6,0,0,0.00
2013-8-28,81.5,76.0,70.7,75.0,72.4,69.0,96,89,76,30.02,29.82,3,0,0,0.51
2013-8-29,87.2,75.2,64.7,73.0,68.4,63.0,96,81,57,30.10,30.02,1,0,0,0.00
2013-8-30,88.2,75.4,61.8,72.0,67.5,60.0,96,78,53,30.03,29.77,7,1,0,0.00
2013-8-31,84.3,76.3,69.4,72.0,69.0,67.0,93,79,59,29.86,29.77,2,0,0,0.00
2013-9-1,82.7,73.8,67.5,72.0,69.0,66.0,96,85,68,29.86,29.75,2,0,0,0.08
2013-9-2,77.7,70.5,61.0,69.0,62.7,52.0,96,78,55,29.95,29.76,4,0,0,0.00
2013-9-3,75.1,64.1,58.3,58.0,54.4,50.0,89,72,54,30.05,29.94,2,0,0,0.00
2013-9-4,82.4,66.1,52.5,63.0,56.8,51.0,96,75,47,30.12,30.05,4,0,0,0.01
2013-9-5,76.3,60.4,50.6,59.0,45.5,-99.9,95,68,36,30.26,30.10,2,-41,0,0.00
2013-9-6,81.1,57.5,43.9,57.0,42.7,-99.9,97,70,36,30.29,30.09,2,-52,0,0.02
2013-9-7,82.4,64.8,49.7,70.0,60.2,48.0,96,86,60,30.09,29.92,1,0,0,0.01
2013-9-8,77.6,67.5,55.3,66.0,62.1,53.0,97,84,58,30.08,29.95,2,0,0,0.00
2013-9-9,86.1,64.9,52.1,74.0,61.7,51.0,96,90,66,30.08,29.91,2,0,0,0.77
2013-9-10,94.1,79.4,67.7,76.0,70.9,66.0,97,78,44,30.05,29.92,4,0,0,0.01
2013-9-11,93.2,77.6,68.1,77.0,70.4,67.0,96,80,51,30.07,29.93,9,1,0,0.19
2013-9-12,79.0,69.3,57.1,69.0,62.5,51.0,97,81,49,29.98,29.85,5,1,0,0.01
2013-9-13,62.1,53.8,40.8,50.0,45.5,39.0,94,75,55,30.14,29.98,5,1,0,0.00
2013-9-14,71.2,50.7,34.9,51.0,41.1,34.0,97,75,33,30.21,30.11,4,0,0,0.00
2013-9-15,67.0,53.0,40.7,58.0,48.9,40.0,97,87,60,30.14,30.05,5,0,0,0.14
2013-9-16,65.6,55.4,44.5,55.0,51.0,43.0,97,86,59,30.37,30.13,3,0,0,0.00
2013-9-17,68.8,51.9,38.7,54.0,45.9,38.0,97,82,53,30.40,30.22,4,0,0,0.00
2013-9-18,79.1,59.2,44.6,60.0,52.5,43.0,97,82,47,30.22,30.04,2,0,0,0.00
2013-9-19,81.3,65.0,54.5,70.0,61.8,53.0,97,90,66,30.06,29.94,4,0,0,0.02
2013-9-20,87.2,70.5,64.7,72.0,67.6,64.0,98,91,61,29.94,29.76,4,1,0,0.35
2013-9-21,68.5,61.8,53.3,66.0,55.7,49.0,97,82,55,29.88,29.71,6,1,0,0.09
2013-9-22,60.5,53.4,42.2,49.0,44.3,40.0,94,73,55,30.08,29.88,5,1,0,0.00
2013-9-23,64.9,50.7,39.4,49.0,44.4,38.0,96,81,53,30.19,30.08,4,0,0,0.00
2013-9-24,67.4,51.0,37.3,52.0,44.7,36.0,97,82,50,30.15,30.00,3,0,0,0.00
2013-9-25,73.5,56.2,44.9,58.0,50.9,44.0,97,84,53,30.01,29.94,3,0,0,0.00
2013-9-26,77.9,58.3,45.1,58.0,49.7,44.0,97,78,35,30.14,30.00,3,0,0,0.01
2013-9-27,75.6,57.9,43.7,61.0,51.6,43.0,98,82,53,30.24,30.14,3,0,0,0.00
2013-9-28,80.9,60.8,45.9,59.0,52.9,45.0,97,79,40,30.21,30.03,5,0,0,0.01
2013-9-29,63.3,58.8,53.6,62.0,57.2,52.0,97,94,89,30.04,29.97,1,0,0,0.27
2013-9-30,72.6,59.7,50.4,61.0,55.8,49.0,97,88,62,30.04,29.94,4,0,0,0.00
2013-10-1,70.1,58.8,47.9,64.0,56.6,47.0,97,92,76,30.05,29.97,3,0,0,0.01
2013-10-2,81.7,66.0,56.1,64.0,57.8,52.0,97,79,40,30.09,29.99,2,0,0,0.01
2013-10-3,77.0,64.5,55.7,71.0,61.8,54.0,96,91,76,30.07,29.94,7,0,0,0.12
2013-10-4,79.3,67.9,61.9,71.0,65.4,61.0,97,92,74,30.05,29.97,3,0,0,0.06
2013-10-5,74.2,68.2,62.9,69.0,66.4,62.0,97,94,83,30.05,29.88,2,0,0,0.01
2013-10-6,69.4,63.8,53.6,67.0,62.4,53.0,97,95,87,29.87,29.66,8,1,0,0.38
2013-10-7,59.7,50.1,42.0,53.0,45.3,40.0,97,84,65,30.14,29.73,10,1,0,0.00
2013-10-8,69.6,50.8,36.9,53.0,43.8,36.0,98,80,45,30.30,30.14,3,0,0,0.00
2013-10-9,70.6,51.9,37.9,54.0,44.2,37.0,98,79,41,30.32,30.22,3,0,0,0.00
2013-10-10,73.2,52.7,39.3,56.0,43.6,38.0,98,77,33,30.23,30.13,5,0,0,0.01
2013-10-11,75.6,53.9,40.3,58.0,47.5,39.0,98,82,48,30.16,30.07,3,0,0,0.00
2013-10-12,78.4,60.0,45.4,61.0,51.9,44.0,98,79,36,30.12,30.04,5,0,0,0.00
2013-10-13,68.9,58.1,46.4,59.0,47.4,41.0,97,71,39,30.35,30.09,6,1,0,0.00
2013-10-14,66.6,50.6,40.6,49.0,43.9,39.0,96,80,52,30.41,30.27,4,0,0,0.00
2013-10-15,61.9,52.1,40.3,61.0,50.1,39.0,97,92,84,30.26,29.86,3,0,0,0.07
2013-10-16,62.0,56.2,51.1,61.0,50.8,45.0,97,83,60,29.94,29.83,9,2,0,0.00
2013-10-17,51.0,47.8,40.8,49.0,45.6,39.0,96,92,82,29.93,29.79,4,0,0,0.14
2013-10-18,63.8,48.8,36.7,48.0,42.5,36.0,97,81,46,29.94,29.86,7,1,0,0.01
2013-10-19,47.9,41.5,34.8,44.0,39.3,34.0,96,92,77,29.93,29.78,3,0,0,0.20
2013-10-20,60.5,47.9,36.6,44.0,40.0,35.0,96,76,46,29.93,29.85,8,1,0,0.01
2013-10-21,53.9,49.3,35.4,49.0,43.9,33.0,92,81,69,29.89,29.83,6,1,0,0.04
2013-10-22,45.9,34.7,29.6,34.0,30.4,28.0,93,85,64,29.96,29.88,3,1,0,0.00
2013-10-26,32.2,32.2,32.2,30.0,30.0,30.0,91,91,91,30.02,30.02,0,0,0,0.00
2013-10-27,54.3,40.0,28.9,38.0,32.0,27.0,96,76,44,30.08,30.00,7,1,0,0.00
2013-10-28,57.8,40.5,27.5,42.0,34.6,26.0,95,81,53,30.37,30.05,6,0,0,0.00
2013-10-29,57.2,41.4,28.9,43.0,35.6,27.0,95,81,58,30.42,30.23,4,0,0,0.00
2013-10-30,64.8,46.5,30.6,53.0,41.2,29.0,97,83,45,30.23,29.96,6,0,0,0.12
2013-10-31,61.8,59.5,54.3,61.0,58.2,53.0,97,96,94,29.96,29.20,9,2,0,1.84
2013-11-1,59.3,48.6,45.0,58.0,44.3,41.0,96,85,74,29.68,29.20,12,2,0,0.06
2013-11-2,49.8,45.2,40.6,45.0,41.8,37.0,96,88,69,30.09,29.67,4,0,0,0.10
2013-11-3,48.3,37.1,30.0,37.0,32.8,29.0,96,85,60,30.43,30.09,2,0,0,0.00
2013-11-4,49.6,38.5,29.5,38.0,31.3,26.0,95,78,42,30.45,30.30,11,0,0,0.01
2013-11-5,54.7,47.5,38.7,49.0,44.1,37.0,94,88,78,30.37,30.18,5,0,0,0.00
2013-11-6,55.4,51.7,43.5,53.0,47.2,40.0,93,85,68,30.18,29.83,11,2,0,0.19
2013-11-7,46.4,40.7,34.8,39.0,32.3,27.0,89,73,53,30.16,30.00,8,2,0,0.00
2013-11-8,45.1,36.3,29.8,33.0,29.7,27.0,94,78,53,30.30,30.14,4,0,0,0.01
2013-11-9,57.8,47.9,35.1,43.0,37.1,31.0,87,67,57,30.18,29.83,17,2,0,0.00
2013-11-10,48.1,42.1,32.5,38.0,30.8,27.0,87,66,53,30.29,29.94,11,2,0,0.00
2013-11-11,46.6,37.1,27.6,39.0,32.6,23.0,94,84,65,30.32,30.04,6,1,0,0.13
2013-11-12,34.5,27.7,20.1,24.0,19.9,17.0,88,74,54,30.55,30.33,6,1,0,0.00
2013-11-13,37.5,27.5,16.5,24.0,19.5,15.0,93,74,45,30.55,30.19,10,2,0,0.00
2013-11-14,50.1,37.1,27.4,27.0,24.0,20.0,78,61,36,30.20,30.02,7,2,0,0.01
2013-11-15,49.6,41.3,33.7,32.0,28.9,25.0,81,62,48,30.08,30.01,4,1,0,0.00
2013-11-16,57.9,44.8,28.5,53.0,41.3,27.0,94,88,77,30.09,29.82,10,2,0,0.00
2013-11-17,63.5,56.8,47.3,60.0,52.7,-99.9,95,89,74,29.81,29.30,16,-6,0,1.09
2013-11-18,47.6,40.3,35.0,40.0,32.5,26.0,85,74,67,30.15,29.57,14,4,0,0.00
2013-11-19,42.6,34.1,25.2,26.0,24.3,22.0,90,68,50,30.39,30.16,6,1,0,0.00
2013-11-20,44.2,32.4,21.8,31.0,26.3,20.0,95,79,53,30.42,30.23,4,0,0,0.00
2013-11-21,45.5,41.8,36.4,43.0,39.2,31.0,96,90,78,30.28,30.17,6,0,0,0.46
2013-11-22,45.7,40.0,25.5,45.0,37.4,24.0,97,90,74,30.37,30.14,8,1,0,0.03
2013-11-23,30.1,24.5,17.9,25.0,17.2,8.0,94,75,50,30.53,30.29,9,2,0,0.00
2013-11-24,24.9,18.5,11.8,16.0,11.1,8.0,91,74,52,30.60,30.43,11,2,0,0.00
2013-11-25,30.5,24.9,17.6,25.0,17.5,12.0,87,74,58,30.43,30.10,8,2,0,0.00
2013-11-26,37.2,31.5,28.8,29.0,26.6,24.0,89,82,71,30.12,29.93,6,1,0,0.00
2013-11-27,29.4,24.0,14.1,24.0,15.3,11.0,87,70,55,30.20,29.91,10,2,0,0.00
2013-11-28,27.8,23.3,14.4,21.0,16.8,12.0,90,77,61,30.41,30.21,5,1,0,0.00
2013-11-29,34.9,26.4,18.3,24.0,20.2,16.0,92,78,55,30.64,30.41,3,0,0,0.00
2013-11-30,46.1,32.7,25.6,30.0,25.1,21.0,88,75,53,30.54,30.10,5,1,0,0.00
2013-12-1,46.5,35.0,25.2,36.0,29.8,23.0,93,82,64,30.10,29.97,6,0,0,0.00
2013-12-2,40.2,31.5,25.8,32.0,27.1,23.0,95,84,63,29.98,29.87,3,0,0,0.00
2013-12-3,40.6,35.4,30.4,37.0,32.4,26.0,94,89,80,29.88,29.82,3,0,0,0.03
2013-12-4,57.7,47.1,35.7,54.0,44.7,34.0,95,91,87,29.88,29.64,7,1,0,0.00
2013-12-5,59.0,41.8,30.3,56.0,35.6,23.0,90,78,69,30.15,29.63,9,3,0,0.00
2013-12-6,30.3,27.5,22.8,23.0,19.7,14.0,76,72,67,30.39,30.13,4,1,0,0.00
2013-12-7,25.2,19.7,11.1,16.0,12.1,8.0,88,73,57,30.60,30.40,7,1,0,0.00
2013-12-8,27.9,19.9,10.1,26.0,16.6,8.0,94,87,78,30.57,29.97,6,1,0,0.00
2013-12-9,29.1,24.9,18.4,27.0,20.7,12.0,95,84,74,30.13,29.90,13,3,0,0.00
2013-12-10,22.9,17.1,8.1,13.0,9.4,4.0,85,72,53,30.20,29.96,11,3,0,0.00
2013-12-11,24.7,17.3,7.4,19.0,12.1,4.0,88,80,74,30.45,30.21,6,1,0,0.00
2013-12-12,17.0,11.5,4.4,12.0,4.5,-2.0,90,74,55,30.45,30.20,5,1,0,0.00
2013-12-13,30.7,22.5,15.3,22.0,16.2,9.0,86,77,67,30.23,30.16,4,1,0,0.00
2013-12-14,24.6,20.8,19.8,21.0,18.8,18.0,93,92,86,30.22,29.80,9,3,0,0.00
2013-12-15,23.4,18.9,11.0,21.0,15.6,7.0,91,86,81,30.04,29.81,9,2,0,0.00
2013-12-16,21.0,10.5,-3.9,13.0,6.3,-7.0,91,83,67,30.17,29.98,5,0,0,0.00
2013-12-17,24.2,20.2,12.0,21.0,17.5,10.0,93,89,85,30.01,29.90,8,1,0,0.00
2013-12-18,26.3,21.5,14.7,21.0,17.0,12.0,94,83,72,30.14,29.91,7,2,0,0.00
2013-12-19,41.9,34.0,20.2,35.0,29.1,16.0,91,82,73,29.97,29.86,3,0,0,0.24
2013-12-20,41.3,38.3,34.8,40.0,37.2,33.0,97,95,92,29.88,29.72,4,0,0,0.35
2013-12-21,42.2,35.2,32.3,41.0,34.6,32.0,97,97,97,29.84,29.60,6,1,0,1.10
2013-12-22,38.5,34.8,32.3,37.0,33.3,32.0,97,94,86,29.97,29.50,11,2,0,0.22
2013-12-23,33.4,28.7,17.6,31.0,23.5,12.0,92,81,71,30.31,29.98,8,2,0,0.00
2013-12-24,22.8,14.5,9.3,12.0,8.6,5.0,91,78,60,30.52,30.31,4,1,0,0.00
2013-12-25,25.0,20.3,8.9,23.0,16.9,7.0,92,86,78,30.48,30.11,9,2,0,0.00
2013-12-26,27.6,25.9,24.3,25.0,21.4,18.0,93,83,72,30.28,30.05,8,2,0,0.00
2013-12-27,40.4,33.9,27.0,33.0,29.1,23.0,89,83,73,30.31,30.10,6,1,0,0.03
2013-12-28,47.0,38.5,31.7,37.0,33.1,29.0,90,81,68,30.12,29.92,9,2,0,0.00
2013-12-29,44.1,35.5,24.3,34.0,29.8,19.0,91,80,67,30.00,29.69,8,2,0,0.00
2013-12-30,23.8,20.8,17.5,18.0,11.9,9.0,77,68,60,30.24,30.01,10,2,0,0.00
2013-12-31,20.1,16.9,14.7,13.0,11.4,9.0,88,79,70,30.32,30.07,8,2,0,0.00
2014-1-1,16.5,14.7,12.6,13.0,11.7,10.0,91,88,83,30.33,30.15,11,2,0,0.00
2014-1-2,15.4,12.1,4.4,13.0,8.9,-3.0,91,86,72,30.26,30.03,11,4,0,0.00